createdAt,value
2018-10-16T00:02:05.223Z,16.46
2018-10-16T00:04:32.663Z,16.57
2018-10-16T00:07:00.101Z,16.51
2018-10-16T00:09:27.539Z,16.50
2018-10-16T00:11:54.967Z,16.51
2018-10-16T00:14:22.397Z,16.54
2018-10-16T00:16:49.823Z,16.45
2018-10-16T00:19:17.259Z,16.60
2018-10-16T00:21:44.683Z,16.63
2018-10-16T00:24:12.132Z,16.59
2018-10-16T00:26:39.556Z,16.60
2018-10-16T00:29:06.995Z,16.62
2018-10-16T00:31:34.423Z,16.61
2018-10-16T00:34:01.860Z,16.57
2018-10-16T00:36:29.293Z,16.49
2018-10-16T00:38:56.732Z,16.45
2018-10-16T00:41:24.164Z,16.52
2018-10-16T00:43:51.608Z,16.55
2018-10-16T00:46:19.059Z,16.53
2018-10-16T00:48:46.484Z,16.54
2018-10-16T00:51:13.917Z,16.40
2018-10-16T00:53:41.347Z,16.30
2018-10-16T00:56:08.783Z,16.24
2018-10-16T00:58:36.219Z,16.26
2018-10-16T01:01:03.659Z,16.17
2018-10-16T01:03:31.172Z,16.29
2018-10-16T01:05:58.606Z,16.21
2018-10-16T01:08:26.048Z,16.12
2018-10-16T01:10:53.483Z,16.13
2018-10-16T01:13:20.911Z,16.13
2018-10-16T01:15:48.426Z,16.20
2018-10-16T01:18:15.859Z,16.16
2018-10-16T01:20:43.312Z,16.16
2018-10-16T01:23:10.738Z,16.14
2018-10-16T01:25:38.174Z,16.11
2018-10-16T01:28:05.616Z,16.14
2018-10-16T01:30:33.096Z,16.12
2018-10-16T01:33:00.538Z,16.16
2018-10-16T01:35:28.024Z,16.18
2018-10-16T01:37:55.451Z,16.18
2018-10-16T01:40:22.901Z,16.16
2018-10-16T01:42:50.330Z,16.21
2018-10-16T01:45:17.764Z,16.15
2018-10-16T01:47:45.288Z,16.21
2018-10-16T01:50:12.727Z,16.21
2018-10-16T01:52:40.220Z,16.20
2018-10-16T01:55:07.669Z,16.16
2018-10-16T01:57:35.136Z,16.24
2018-10-16T02:00:02.580Z,16.21
2018-10-16T02:02:30.083Z,16.16
2018-10-16T02:04:57.544Z,16.24
2018-10-16T02:07:24.982Z,16.22
2018-10-16T02:09:52.415Z,16.19
2018-10-16T02:12:19.879Z,16.26
2018-10-16T02:14:47.418Z,16.18
2018-10-16T02:17:14.767Z,16.26
2018-10-16T02:19:42.222Z,16.20
2018-10-16T02:22:09.723Z,16.15
2018-10-16T02:24:37.246Z,16.22
2018-10-16T02:27:04.732Z,16.14
2018-10-16T02:29:32.292Z,16.13
2018-10-16T02:31:59.748Z,16.18
2018-10-16T02:34:27.211Z,16.15
2018-10-16T02:36:54.651Z,16.15
2018-10-16T02:39:22.107Z,16.09
2018-10-16T02:41:49.576Z,16.11
2018-10-16T02:44:17.041Z,16.09
2018-10-16T02:46:44.496Z,16.12
2018-10-16T02:49:11.956Z,16.10
2018-10-16T02:51:39.386Z,16.05
2018-10-16T02:54:06.916Z,15.96
2018-10-16T02:56:34.353Z,15.96
2018-10-16T02:59:01.791Z,16.02
2018-10-16T03:01:29.228Z,16.11
2018-10-16T03:03:56.670Z,16.11
2018-10-16T03:06:24.160Z,16.06
2018-10-16T03:08:51.589Z,15.99
2018-10-16T03:11:19.073Z,16.00
2018-10-16T03:13:46.532Z,15.95
2018-10-16T03:16:13.979Z,16.01
2018-10-16T03:18:41.429Z,15.94
2018-10-16T03:21:08.847Z,15.93
2018-10-16T03:23:42.603Z,16.02
2018-10-16T03:26:10.046Z,15.98
2018-10-16T03:28:37.490Z,15.94
2018-10-16T03:31:04.923Z,15.93
2018-10-16T03:33:32.363Z,15.98
2018-10-16T03:35:59.799Z,15.89
2018-10-16T03:38:27.231Z,15.97
2018-10-16T03:40:54.671Z,15.92
2018-10-16T03:43:22.099Z,15.92
2018-10-16T03:45:49.542Z,15.92
2018-10-16T03:48:16.976Z,15.89
2018-10-16T03:50:44.408Z,15.88
2018-10-16T03:53:11.840Z,15.88
2018-10-16T03:55:39.283Z,15.85
2018-10-16T03:58:06.727Z,15.86
2018-10-16T04:00:34.160Z,15.83
2018-10-16T04:03:01.593Z,15.70
2018-10-16T04:05:29.051Z,15.79
2018-10-16T04:07:56.467Z,15.78
2018-10-16T04:10:23.911Z,15.82
2018-10-16T04:12:51.353Z,15.78
2018-10-16T04:15:18.792Z,15.84
2018-10-16T04:17:46.305Z,15.78
2018-10-16T04:20:13.711Z,15.76
2018-10-16T04:22:41.129Z,15.78
2018-10-16T04:25:08.979Z,15.76
2018-10-16T04:27:36.387Z,15.69
2018-10-16T04:30:03.800Z,15.71
2018-10-16T04:32:31.223Z,15.71
2018-10-16T04:34:58.642Z,15.66
2018-10-16T04:37:26.050Z,15.72
2018-10-16T04:39:53.464Z,15.73
2018-10-16T04:42:20.912Z,15.75
2018-10-16T04:44:48.311Z,15.73
2018-10-16T04:47:15.737Z,15.67
2018-10-16T04:49:43.153Z,15.67
2018-10-16T04:52:10.575Z,15.72
2018-10-16T04:54:37.992Z,15.72
2018-10-16T04:57:05.407Z,15.68
2018-10-16T04:59:32.828Z,15.66
2018-10-16T05:02:00.243Z,15.63
2018-10-16T05:07:17.234Z,15.65
2018-10-16T05:09:44.658Z,15.62
2018-10-16T05:12:12.100Z,15.65
2018-10-16T05:14:39.556Z,15.64
2018-10-16T05:17:06.978Z,15.62
2018-10-16T05:19:34.405Z,15.59
2018-10-16T05:22:01.853Z,15.66
2018-10-16T05:24:29.275Z,15.67
2018-10-16T05:26:56.693Z,15.64
2018-10-16T05:29:24.120Z,15.70
2018-10-16T05:31:51.590Z,15.66
2018-10-16T05:34:19.033Z,15.64
2018-10-16T05:36:46.493Z,15.59
2018-10-16T05:39:13.971Z,15.57
2018-10-16T05:41:41.379Z,15.60
2018-10-16T05:44:09.107Z,15.57
2018-10-16T05:46:36.575Z,15.54
2018-10-16T05:49:04.250Z,15.51
2018-10-16T05:51:31.768Z,15.58
2018-10-16T05:53:59.190Z,15.50
2018-10-16T05:56:26.627Z,15.51
2018-10-16T05:58:54.044Z,15.61
2018-10-16T06:01:21.467Z,15.59
2018-10-16T06:03:48.884Z,15.58
2018-10-16T06:06:16.320Z,15.56
2018-10-16T06:08:43.750Z,15.58
2018-10-16T06:11:11.272Z,15.49
2018-10-16T06:13:38.695Z,15.52
2018-10-16T06:16:06.132Z,15.56
2018-10-16T06:18:33.541Z,15.56
2018-10-16T06:21:01.633Z,15.46
2018-10-16T06:23:29.280Z,15.48
2018-10-16T06:25:56.709Z,15.75
2018-10-16T06:28:25.494Z,15.79
2018-10-16T06:30:52.914Z,16.06
2018-10-16T06:33:22.977Z,16.23
2018-10-16T06:35:50.354Z,16.13
2018-10-16T06:38:17.796Z,16.12
2018-10-16T06:40:45.337Z,16.28
2018-10-16T06:43:12.899Z,16.26
2018-10-16T06:45:40.324Z,16.36
2018-10-16T06:48:08.332Z,16.60
2018-10-16T06:50:35.676Z,16.53
2018-10-16T06:53:03.288Z,16.55
2018-10-16T06:55:30.672Z,16.57
2018-10-16T06:57:58.187Z,16.47
2018-10-16T07:00:25.633Z,16.70
2018-10-16T07:02:53.114Z,16.64
2018-10-16T07:05:20.532Z,16.52
2018-10-16T07:07:47.952Z,16.49
2018-10-16T07:10:15.485Z,16.63
2018-10-16T07:12:42.941Z,16.69
2018-10-16T07:15:10.630Z,16.66
2018-10-16T07:17:38.061Z,16.63
2018-10-16T07:20:05.461Z,16.69
2018-10-16T07:22:32.894Z,16.87
2018-10-16T07:25:00.313Z,17.05
2018-10-16T07:27:27.747Z,17.24
2018-10-16T07:29:55.187Z,17.31
2018-10-16T07:32:22.611Z,17.36
2018-10-16T07:34:50.088Z,17.13
2018-10-16T07:37:17.513Z,17.39
2018-10-16T07:39:44.924Z,17.58
2018-10-16T07:42:12.360Z,17.62
2018-10-16T07:44:39.792Z,17.65
2018-10-16T07:47:07.465Z,17.92
2018-10-16T07:49:34.879Z,18.14
2018-10-16T07:52:02.365Z,18.33
2018-10-16T07:54:29.845Z,18.66
2018-10-16T07:56:57.231Z,18.78
2018-10-16T07:59:24.654Z,18.96
2018-10-16T08:01:52.093Z,18.82
2018-10-16T08:04:19.538Z,18.90
2018-10-16T08:06:46.962Z,18.90
2018-10-16T08:09:15.576Z,18.72
2018-10-16T08:11:47.312Z,18.70
2018-10-16T08:14:15.902Z,18.34
2018-10-16T08:16:44.485Z,18.48
2018-10-16T08:19:12.044Z,18.60
2018-10-16T08:21:39.475Z,18.77
2018-10-16T08:24:07.162Z,18.71
2018-10-16T08:26:34.590Z,18.91
2018-10-16T08:29:02.106Z,18.95
2018-10-16T08:31:30.261Z,18.90
2018-10-16T08:33:57.764Z,18.87
2018-10-16T08:36:25.264Z,18.91
2018-10-16T08:38:52.542Z,18.94
2018-10-16T08:41:19.972Z,19.03
2018-10-16T08:43:48.984Z,19.22
2018-10-16T08:46:16.393Z,19.24
2018-10-16T08:48:44.413Z,19.32
2018-10-16T08:51:12.001Z,19.42
2018-10-16T08:53:39.433Z,19.11
2018-10-16T08:56:06.853Z,19.26
2018-10-16T08:58:34.390Z,19.46
2018-10-16T09:01:01.810Z,19.39
2018-10-16T09:03:29.244Z,19.59
2018-10-16T09:05:56.679Z,19.73
2018-10-16T09:08:24.114Z,19.87
2018-10-16T09:10:51.551Z,19.87
2018-10-16T09:13:18.977Z,19.93
2018-10-16T09:15:46.466Z,19.93
2018-10-16T09:18:13.889Z,19.98
2018-10-16T09:20:41.329Z,19.75
2018-10-16T09:23:08.897Z,19.88
2018-10-16T09:25:36.324Z,19.82
2018-10-16T09:28:04.067Z,19.79
2018-10-16T09:30:31.492Z,20.06
2018-10-16T09:32:58.932Z,20.08
2018-10-16T09:35:26.582Z,20.27
2018-10-16T09:37:54.033Z,20.29
2018-10-16T09:40:21.454Z,20.23
2018-10-16T09:42:48.876Z,20.48
2018-10-16T09:45:16.381Z,20.56
2018-10-16T09:47:43.830Z,20.62
2018-10-16T09:50:11.292Z,20.88
2018-10-16T09:52:38.813Z,20.78
2018-10-16T09:55:06.249Z,20.81
2018-10-16T09:57:33.672Z,20.78
2018-10-16T10:00:01.357Z,20.88
2018-10-16T10:02:28.784Z,21.18
2018-10-16T10:04:56.340Z,21.07
2018-10-16T10:07:23.769Z,21.21
2018-10-16T10:09:51.192Z,21.21
2018-10-16T10:12:18.652Z,21.36
2018-10-16T10:14:46.073Z,21.30
2018-10-16T10:17:13.501Z,21.20
2018-10-16T10:19:40.932Z,21.11
2018-10-16T10:22:08.365Z,21.04
2018-10-16T10:24:35.805Z,21.30
2018-10-16T10:27:03.268Z,21.63
2018-10-16T10:29:30.810Z,21.70
2018-10-16T10:31:58.176Z,21.70
2018-10-16T10:34:25.630Z,21.42
2018-10-16T10:36:53.057Z,21.44
2018-10-16T10:39:20.545Z,21.47
2018-10-16T10:41:47.964Z,21.39
2018-10-16T10:44:15.484Z,21.53
2018-10-16T10:46:42.896Z,21.70
2018-10-16T10:49:10.327Z,21.69
2018-10-16T10:51:38.171Z,21.74
2018-10-16T10:54:05.179Z,21.69
2018-10-16T10:56:32.722Z,21.65
2018-10-16T10:59:00.073Z,21.70
2018-10-16T11:01:27.605Z,21.74
2018-10-16T11:03:55.027Z,21.90
2018-10-16T11:06:22.456Z,21.82
2018-10-16T11:08:49.903Z,21.91
2018-10-16T11:11:17.395Z,21.87
2018-10-16T11:13:44.824Z,21.66
2018-10-16T11:16:12.512Z,21.79
2018-10-16T11:18:39.956Z,22.04
2018-10-16T11:21:08.044Z,22.23
2018-10-16T11:23:35.500Z,22.06
2018-10-16T11:26:02.939Z,22.15
2018-10-16T11:28:30.411Z,22.27
2018-10-16T11:30:57.828Z,22.35
2018-10-16T11:33:25.261Z,22.47
2018-10-16T11:35:52.683Z,22.32
2018-10-16T11:38:20.113Z,22.19
2018-10-16T11:40:47.539Z,22.15
2018-10-16T11:43:15.048Z,22.18
2018-10-16T11:45:42.494Z,22.27
2018-10-16T11:48:09.860Z,22.28
2018-10-16T11:50:37.401Z,22.39
2018-10-16T11:53:04.816Z,22.27
2018-10-16T11:55:32.250Z,22.25
2018-10-16T11:57:59.700Z,22.13
2018-10-16T12:00:27.160Z,22.11
2018-10-16T12:02:55.196Z,22.23
2018-10-16T12:05:22.852Z,22.35
2018-10-16T12:07:50.308Z,22.20
2018-10-16T12:10:17.688Z,22.16
2018-10-16T12:12:45.116Z,22.07
2018-10-16T12:15:12.620Z,22.15
2018-10-16T12:17:45.496Z,22.01
2018-10-16T12:20:17.636Z,22.08
2018-10-16T12:22:45.772Z,21.97
2018-10-16T12:25:13.263Z,21.95
2018-10-16T12:27:40.634Z,21.94
2018-10-16T12:30:08.383Z,22.02
2018-10-16T12:32:36.161Z,22.04
2018-10-16T12:35:03.588Z,21.95
2018-10-16T12:37:31.013Z,22.03
2018-10-16T12:39:58.462Z,22.16
2018-10-16T12:42:25.881Z,21.99
2018-10-16T12:44:53.407Z,22.00
2018-10-16T12:47:20.793Z,21.88
2018-10-16T12:49:48.224Z,22.06
2018-10-16T12:52:15.640Z,21.93
2018-10-16T12:54:43.069Z,21.97
2018-10-16T12:57:10.503Z,21.83
2018-10-16T12:59:37.918Z,21.91
2018-10-16T13:02:05.367Z,22.01
2018-10-16T13:04:32.837Z,21.91
2018-10-16T13:07:06.601Z,21.79
2018-10-16T13:09:34.020Z,21.83
2018-10-16T13:12:01.438Z,21.90
2018-10-16T13:14:29.037Z,21.93
2018-10-16T13:16:56.527Z,21.86
2018-10-16T13:19:23.920Z,21.84
2018-10-16T13:21:51.446Z,21.77
2018-10-16T13:24:18.955Z,21.70
2018-10-16T13:26:46.368Z,21.68
2018-10-16T13:29:13.864Z,21.85
2018-10-16T13:31:41.232Z,21.86
2018-10-16T13:34:08.734Z,22.26
2018-10-16T13:36:36.135Z,22.34
2018-10-16T13:39:04.757Z,22.31
2018-10-16T13:41:32.206Z,22.44
2018-10-16T13:43:59.711Z,22.28
2018-10-16T13:46:27.136Z,22.30
2018-10-16T13:48:54.608Z,22.33
2018-10-16T13:51:22.058Z,22.43
2018-10-16T13:53:49.518Z,22.53
2018-10-16T13:56:16.967Z,22.42
2018-10-16T13:58:44.403Z,22.43
2018-10-16T14:01:11.855Z,22.38
2018-10-16T14:03:39.308Z,22.32
2018-10-16T14:06:06.744Z,22.20
2018-10-16T14:08:34.198Z,22.37
2018-10-16T14:11:01.636Z,22.25
2018-10-16T14:13:29.079Z,22.27
2018-10-16T14:15:56.523Z,22.25
2018-10-16T14:18:23.965Z,22.14
2018-10-16T14:20:51.427Z,22.13
2018-10-16T14:23:18.889Z,22.04
2018-10-16T14:25:46.319Z,22.08
2018-10-16T14:28:13.848Z,22.02
2018-10-16T14:30:41.218Z,22.03
2018-10-16T14:33:10.490Z,21.95
2018-10-16T14:35:37.916Z,21.91
2018-10-16T14:38:05.412Z,21.89
2018-10-16T14:40:32.788Z,21.88
2018-10-16T14:43:00.345Z,21.77
2018-10-16T14:45:27.785Z,21.64
2018-10-16T14:47:55.243Z,21.66
2018-10-16T14:50:22.634Z,21.69
2018-10-16T14:52:50.069Z,21.69
2018-10-16T14:55:17.540Z,21.73
2018-10-16T14:57:45.044Z,21.68
2018-10-16T15:00:13.233Z,21.64
2018-10-16T15:02:40.649Z,21.65
2018-10-16T15:05:08.659Z,21.58
2018-10-16T15:07:36.369Z,21.56
2018-10-16T15:10:03.927Z,21.47
2018-10-16T15:12:32.288Z,21.32
2018-10-16T15:15:00.483Z,21.23
2018-10-16T15:17:28.524Z,21.09
2018-10-16T15:19:55.953Z,21.09
2018-10-16T15:22:23.397Z,21.03
2018-10-16T15:24:50.810Z,20.80
2018-10-16T15:27:18.449Z,20.85
2018-10-16T15:29:45.867Z,20.79
2018-10-16T15:32:13.430Z,20.74
2018-10-16T15:34:40.769Z,20.55
2018-10-16T15:37:08.276Z,20.52
2018-10-16T15:39:35.712Z,20.46
2018-10-16T15:42:03.158Z,20.29
2018-10-16T15:44:30.560Z,20.31
2018-10-16T15:46:57.992Z,20.19
2018-10-16T15:49:25.494Z,20.16
2018-10-16T15:51:52.957Z,19.93
2018-10-16T15:54:20.344Z,19.89
2018-10-16T15:56:47.787Z,19.80
2018-10-16T15:59:15.229Z,19.73
2018-10-16T16:01:42.656Z,19.69
2018-10-16T16:04:10.223Z,19.59
2018-10-16T16:06:37.584Z,19.60
2018-10-16T16:09:05.746Z,19.58
2018-10-16T16:11:33.176Z,19.45
2018-10-16T16:14:01.545Z,19.41
2018-10-16T16:16:28.918Z,19.29
2018-10-16T16:18:56.361Z,18.97
2018-10-16T16:21:23.792Z,18.84
2018-10-16T16:23:51.385Z,18.63
2018-10-16T16:26:18.876Z,18.68
2018-10-16T16:28:46.253Z,18.17
2018-10-16T16:31:13.716Z,17.98
2018-10-16T16:33:41.131Z,17.70
2018-10-16T16:36:08.719Z,17.84
2018-10-16T16:38:36.001Z,17.44
2018-10-16T16:41:03.489Z,17.38
2018-10-16T16:43:31.554Z,17.58
2018-10-16T16:45:59.000Z,17.43
2018-10-16T16:48:26.372Z,17.48
2018-10-16T16:50:53.792Z,17.47
2018-10-16T16:53:21.231Z,17.38
2018-10-16T16:55:49.416Z,17.37
2018-10-16T16:58:16.873Z,17.25
2018-10-16T17:00:44.425Z,16.97
2018-10-16T17:03:11.887Z,17.01
2018-10-16T17:05:39.315Z,16.84
2018-10-16T17:08:06.775Z,16.63
2018-10-16T17:10:34.255Z,16.64
2018-10-16T17:13:01.904Z,16.56
2018-10-16T17:15:29.385Z,16.50
2018-10-16T17:17:56.845Z,16.28
2018-10-16T17:20:24.294Z,16.22
2018-10-16T17:22:51.752Z,15.97
2018-10-16T17:25:19.373Z,16.12
2018-10-16T17:27:46.672Z,16.13
2018-10-16T17:30:14.812Z,15.93
2018-10-16T17:32:43.024Z,15.95
2018-10-16T17:35:11.399Z,16.13
2018-10-16T17:37:39.332Z,15.82
2018-10-16T17:40:06.760Z,15.69
2018-10-16T17:42:34.280Z,15.43
2018-10-16T17:45:01.734Z,15.38
2018-10-16T17:47:29.231Z,15.35
2018-10-16T17:49:56.657Z,15.22
2018-10-16T17:52:24.134Z,15.29
2018-10-16T17:54:51.557Z,15.48
2018-10-16T17:57:19.036Z,15.53
2018-10-16T17:59:46.420Z,15.26
2018-10-16T18:02:13.858Z,14.97
2018-10-16T18:04:41.307Z,15.18
2018-10-16T18:07:08.712Z,15.03
2018-10-16T18:09:36.208Z,15.01
2018-10-16T18:12:03.608Z,15.13
2018-10-16T18:14:31.034Z,15.27
2018-10-16T18:16:58.456Z,15.07
2018-10-16T18:19:25.880Z,15.03
2018-10-16T18:21:53.395Z,14.95
2018-10-16T18:24:20.823Z,15.01
2018-10-16T18:26:48.261Z,14.94
2018-10-16T18:29:15.694Z,14.99
2018-10-16T18:31:43.129Z,13.93
2018-10-16T18:34:10.562Z,13.86
2018-10-16T18:36:37.988Z,14.26
2018-10-16T18:39:05.478Z,14.37
2018-10-16T18:41:32.845Z,14.34
2018-10-16T18:44:00.280Z,14.38
2018-10-16T18:46:27.708Z,14.70
2018-10-16T18:48:55.270Z,14.67
2018-10-16T18:51:22.629Z,14.64
2018-10-16T18:53:50.044Z,14.21
2018-10-16T18:56:17.473Z,13.96
2018-10-16T18:58:44.960Z,14.07
2018-10-16T19:01:12.397Z,14.13
2018-10-16T19:03:39.825Z,13.83
2018-10-16T19:06:07.260Z,13.10
2018-10-16T19:08:34.685Z,13.16
2018-10-16T19:11:02.138Z,13.42
2018-10-16T19:13:29.605Z,13.60
2018-10-16T19:15:57.039Z,13.74
2018-10-16T19:18:24.481Z,13.95
2018-10-16T19:20:51.909Z,13.81
2018-10-16T19:23:19.341Z,13.75
2018-10-16T19:25:46.788Z,13.49
2018-10-16T19:28:14.224Z,13.39
2018-10-16T19:30:41.656Z,13.49
2018-10-16T19:33:09.120Z,13.65
2018-10-16T19:35:36.527Z,13.79
2018-10-16T19:38:04.089Z,13.62
2018-10-16T19:40:31.512Z,13.41
2018-10-16T19:42:58.992Z,13.31
2018-10-16T19:45:26.430Z,13.55
2018-10-16T19:47:53.872Z,13.40
2018-10-16T19:50:21.466Z,13.20
2018-10-16T19:52:48.868Z,13.17
2018-10-16T19:55:16.296Z,13.02
2018-10-16T19:57:43.743Z,12.77
2018-10-16T20:00:11.194Z,12.87
2018-10-16T20:02:38.724Z,12.96
2018-10-16T20:05:06.162Z,13.15
2018-10-16T20:07:33.605Z,13.06
2018-10-16T20:10:01.127Z,12.72
2018-10-16T20:12:28.563Z,12.39
2018-10-16T20:14:56.044Z,12.52
2018-10-16T20:17:23.464Z,12.45
2018-10-16T20:19:50.903Z,12.65
2018-10-16T20:22:18.335Z,12.44
2018-10-16T20:24:45.852Z,12.19
2018-10-16T20:27:13.212Z,12.16
2018-10-16T20:29:40.650Z,11.98
2018-10-16T20:32:08.077Z,12.08
2018-10-16T20:34:35.596Z,12.30
2018-10-16T20:37:03.077Z,12.24
2018-10-16T20:39:30.476Z,12.41
2018-10-16T20:41:57.920Z,12.27
2018-10-16T20:44:25.334Z,12.11
2018-10-16T20:46:52.760Z,12.00
2018-10-16T20:49:20.212Z,12.16
2018-10-16T20:51:47.644Z,12.33
2018-10-16T20:54:15.081Z,12.42
2018-10-16T20:56:42.505Z,12.41
2018-10-16T20:59:09.944Z,12.28
2018-10-16T21:01:37.360Z,12.19
2018-10-16T21:04:04.884Z,12.18
2018-10-16T21:06:32.432Z,12.10
2018-10-16T21:08:59.757Z,12.13
2018-10-16T21:11:27.252Z,12.24
2018-10-16T21:13:54.682Z,11.99
2018-10-16T21:16:22.099Z,11.88
2018-10-16T21:18:49.528Z,12.08
2018-10-16T21:21:16.959Z,11.91
2018-10-16T21:23:44.399Z,11.77
2018-10-16T21:26:11.835Z,11.96
2018-10-16T21:28:39.257Z,11.93
2018-10-16T21:31:06.762Z,11.93
2018-10-16T21:33:34.164Z,12.00
2018-10-16T21:36:01.600Z,12.00
2018-10-16T21:38:29.260Z,11.98
2018-10-16T21:40:56.762Z,11.99
2018-10-16T21:43:24.143Z,12.08
2018-10-16T21:45:51.571Z,12.01
2018-10-16T21:48:19.190Z,11.85
2018-10-16T21:50:46.635Z,11.61
2018-10-16T21:53:14.154Z,11.68
2018-10-16T21:55:41.698Z,11.68
2018-10-16T21:58:09.135Z,11.76
2018-10-16T22:00:41.983Z,11.81
2018-10-16T22:03:09.410Z,11.61
2018-10-16T22:05:36.839Z,11.72
2018-10-16T22:08:04.384Z,11.64
2018-10-16T22:10:31.720Z,11.69
2018-10-16T22:13:00.181Z,11.77
2018-10-16T22:15:27.606Z,11.83
2018-10-16T22:17:55.002Z,11.77
2018-10-16T22:20:22.432Z,11.63
2018-10-16T22:22:49.859Z,11.61
2018-10-16T22:25:17.506Z,11.37
2018-10-16T22:27:44.898Z,11.31
2018-10-16T22:30:12.328Z,11.46
2018-10-16T22:32:39.748Z,11.40
2018-10-16T22:35:07.388Z,11.14
2018-10-16T22:37:34.775Z,11.07
2018-10-16T22:40:02.216Z,11.23
2018-10-16T22:42:29.647Z,11.17
2018-10-16T22:44:57.172Z,11.16
2018-10-16T22:47:24.588Z,11.21
2018-10-16T22:49:52.032Z,11.08
2018-10-16T22:52:19.456Z,10.96
2018-10-16T22:54:46.890Z,10.78
2018-10-16T22:57:14.316Z,10.72
2018-10-16T22:59:42.167Z,10.69
2018-10-16T23:02:09.601Z,10.78
2018-10-16T23:04:37.071Z,10.96
2018-10-16T23:07:04.499Z,11.04
2018-10-16T23:09:31.927Z,11.12
2018-10-16T23:11:59.360Z,11.13
2018-10-16T23:14:26.800Z,11.22
2018-10-16T23:16:54.267Z,11.37
2018-10-16T23:19:21.695Z,11.35
2018-10-16T23:21:49.176Z,11.15
2018-10-16T23:24:16.728Z,10.92
2018-10-16T23:26:44.152Z,11.04
2018-10-16T23:29:11.669Z,10.94
2018-10-16T23:31:39.100Z,10.92
2018-10-16T23:34:06.531Z,10.87
2018-10-16T23:36:33.971Z,10.68
2018-10-16T23:39:01.404Z,10.32
2018-10-16T23:41:28.868Z,9.97
2018-10-16T23:43:56.286Z,10.22
2018-10-16T23:46:30.203Z,10.24
2018-10-16T23:48:57.666Z,10.39
2018-10-16T23:51:25.068Z,10.45
2018-10-16T23:53:52.501Z,10.47
2018-10-16T23:56:19.925Z,10.36
2018-10-16T23:58:47.396Z,10.45
